Time;durP1;ratioP1;P1;durP2;ratioP2;P2;SDS_P1;SDS_P2;PMS_P1;PMS_P2;Temp;Humidity;BMP_temperature;BMP_pressure;BME280_temperature;BME280_humidity;BME280_pressure;Samples;Min_cycle;Max_cycle;Signal;HPM_P1;HPM_P2
2022/08/12 00:44:44;;;;;;;4.67;4.22;;;;;;;12.52;96.55;99567.64;4063590;86;21578;-89
2022/08/12 00:50:48;;;;;;;6.30;3.30;;;;;;;12.50;96.56;99564.47;4168383;84;21096;-88
2022/08/12 00:56:52;;;;;;;5.47;3.90;;;;;;;12.39;96.13;99562.75;4169260;84;21066;-90
2022/08/12 01:02:57;;;;;;;6.62;4.05;;;;;;;12.25;96.54;99550.21;4171818;84;21466;-88
2022/08/12 01:15:20;;;;;;;4.95;3.80;;;;;;;12.02;96.76;99558.55;4165822;84;21047;-87
2022/08/12 01:21:41;;;;;;;5.28;4.28;;;;;;;11.98;97.07;99555.55;4179260;84;22432;-91
2022/08/12 01:27:48;;;;;;;6.60;4.22;;;;;;;11.87;96.50;99543.02;4131864;83;21066;-88
2022/08/12 01:34:05;;;;;;;9.00;3.63;;;;;;;11.80;97.37;99549.79;4169215;84;21129;-89
2022/08/12 01:40:09;;;;;;;6.40;3.45;;;;;;;11.82;97.31;99541.19;4164348;84;21063;-88
2022/08/12 01:46:43;;;;;;;6.47;4.05;;;;;;;11.73;97.33;99542.81;4172552;84;21046;-90
2022/08/12 01:52:58;;;;;;;6.67;3.12;;;;;;;11.70;97.47;99548.27;4166610;84;22147;-90
2022/08/12 02:12:42;;;;;;;5.22;4.53;;;;;;;11.59;97.95;99556.28;4170771;84;21094;-91
2022/08/12 02:19:29;;;;;;;11.35;4.12;;;;;;;11.58;97.86;99548.42;4148967;84;21143;-90
2022/08/12 02:25:45;;;;;;;5.25;3.12;;;;;;;11.62;98.55;99542.43;4193419;82;22112;-90
2022/08/12 02:31:47;;;;;;;5.25;3.52;;;;;;;11.57;98.14;99533.94;4223027;83;21066;-89
2022/08/12 02:37:53;;;;;;;6.72;4.20;;;;;;;11.57;98.61;99528.45;4221425;83;21067;-88
2022/08/12 02:44:07;;;;;;;6.60;3.95;;;;;;;11.77;99.56;99525.05;4225845;83;21606;-89
2022/08/12 02:50:10;;;;;;;5.47;4.25;;;;;;;11.79;98.58;99526.84;4216269;83;21110;-90
2022/08/12 02:56:16;;;;;;;6.22;3.20;;;;;;;11.69;98.15;99524.73;4199379;83;21042;-90
2022/08/12 03:02:24;;;;;;;5.10;4.03;;;;;;;11.75;99.44;99530.91;4221372;83;21107;-90
2022/08/12 03:08:30;;;;;;;6.55;4.00;;;;;;;11.92;99.40;99533.11;4208152;83;21060;-87
2022/08/12 03:14:34;;;;;;;6.97;4.30;;;;;;;11.84;97.92;99526.53;4225494;83;21038;-91
2022/08/12 03:20:39;;;;;;;6.20;4.67;;;;;;;11.84;98.94;99520.45;4210370;83;21076;-91
2022/08/12 03:26:44;;;;;;;7.55;4.55;;;;;;;11.78;98.62;99513.70;4230730;83;21076;-91
2022/08/12 03:32:49;;;;;;;6.87;4.75;;;;;;;11.71;98.75;99521.84;4226005;83;21066;-89
2022/08/12 04:04:33;;;;;;;12.43;4.58;;;;;;;11.34;98.95;99531.78;4224162;83;21072;-87
2022/08/12 04:16:58;;;;;;;6.45;4.78;;;;;;;11.44;99.17;99525.69;4188580;83;21786;-89
2022/08/12 04:23:00;;;;;;;12.45;5.30;;;;;;;11.42;99.94;99529.94;4187929;83;21085;-90
2022/08/12 04:29:03;;;;;;;7.92;5.47;;;;;;;11.58;100.00;99516.31;4233291;83;21105;-91
2022/08/12 04:35:06;;;;;;;12.43;5.45;;;;;;;11.76;100.00;99530.33;4211174;83;21115;-87
2022/08/12 04:41:09;;;;;;;14.15;5.67;;;;;;;11.73;100.00;99539.30;4229445;83;21097;-90
2022/08/12 04:47:15;;;;;;;7.72;5.87;;;;;;;11.76;100.00;99546.79;4212113;83;21083;-89
2022/08/12 04:53:17;;;;;;;9.15;6.20;;;;;;;11.72;100.00;99555.52;4202179;83;21128;-93
2022/08/12 04:59:18;;;;;;;8.10;6.33;;;;;;;11.89;100.00;99551.68;4220909;83;21518;-88
2022/08/12 05:05:22;;;;;;;7.42;6.58;;;;;;;12.07;100.00;99548.63;4228334;83;21006;-90
2022/08/12 05:11:24;;;;;;;9.50;7.60;;;;;;;12.26;100.00;99550.44;4227643;83;21021;-93
2022/08/12 05:17:25;;;;;;;9.03;7.92;;;;;;;12.27;100.00;99547.32;4225732;83;21097;-89
2022/08/12 05:23:30;;;;;;;12.05;8.85;;;;;;;12.42;100.00;99548.27;4209701;83;21654;-88
2022/08/12 05:29:31;;;;;;;14.35;9.60;;;;;;;12.49;100.00;99556.03;4176971;83;21563;-89
2022/08/12 05:35:38;;;;;;;12.35;9.90;;;;;;;12.52;100.00;99554.48;4178391;84;21070;-89
2022/08/12 05:41:40;;;;;;;13.68;11.10;;;;;;;12.52;100.00;99569.59;4065954;86;21051;-88
2022/08/12 05:47:41;;;;;;;16.12;11.73;;;;;;;12.56;100.00;99560.22;4174450;84;21093;-89
2022/08/12 05:53:43;;;;;;;12.40;10.50;;;;;;;12.77;100.00;99568.50;4175196;84;21058;-89
2022/08/12 05:59:45;;;;;;;15.68;11.08;;;;;;;13.00;100.00;99570.55;4076808;86;21133;-87
2022/08/12 06:05:48;;;;;;;15.20;10.58;;;;;;;13.26;100.00;99582.23;3987016;87;21069;-88
2022/08/12 06:11:50;;;;;;;12.95;9.60;;;;;;;13.59;100.00;99571.11;4175674;84;21117;-92
2022/08/12 06:17:52;;;;;;;11.80;10.18;;;;;;;13.89;100.00;99553.08;4175832;84;22254;-90
2022/08/12 06:23:54;;;;;;;15.65;11.00;;;;;;;14.24;100.00;99557.43;4182243;84;21072;-90
2022/08/12 06:29:57;;;;;;;12.65;10.38;;;;;;;14.66;100.00;99570.62;4214501;83;21135;-91
2022/08/12 06:36:00;;;;;;;12.95;9.78;;;;;;;15.00;100.00;99569.15;4207523;83;21101;-94
2022/08/12 06:48:23;;;;;;;15.10;10.93;;;;;;;15.69;100.00;99560.17;4211562;83;21155;-90
2022/08/12 06:54:25;;;;;;;14.65;10.53;;;;;;;15.92;100.00;99565.87;4203880;83;21081;-88
2022/08/12 07:00:32;;;;;;;12.85;10.20;;;;;;;16.14;100.00;99577.88;4201457;83;22906;-86
2022/08/12 07:06:33;;;;;;;14.00;9.48;;;;;;;16.37;100.00;99570.50;4215266;83;21096;-86
2022/08/12 07:12:35;;;;;;;12.10;9.75;;;;;;;16.67;100.00;99561.16;4211470;83;21611;-88
2022/08/12 07:18:37;;;;;;;10.95;9.50;;;;;;;17.04;100.00;99564.91;4205186;83;21087;-87
2022/08/12 07:24:38;;;;;;;9.70;8.38;;;;;;;17.24;100.00;99564.58;4210469;83;21030;-87
2022/08/12 07:30:41;;;;;;;11.48;8.78;;;;;;;17.47;99.62;99565.45;4165940;83;21101;-89
2022/08/12 07:36:45;;;;;;;8.85;7.95;;;;;;;17.71;99.35;99565.83;4175747;84;21601;-92
2022/08/12 07:42:47;;;;;;;8.13;6.85;;;;;;;17.92;98.95;99562.88;4168776;84;21076;-88
2022/08/12 07:48:53;;;;;;;12.03;8.35;;;;;;;18.19;98.68;99554.11;4174653;84;21032;-86
2022/08/12 07:54:55;;;;;;;8.77;6.13;;;;;;;18.41;96.90;99544.39;4173758;84;21408;-88
2022/08/12 08:00:59;;;;;;;8.38;6.05;;;;;;;18.89;97.69;99552.48;4169316;84;21325;-87
2022/08/12 08:07:00;;;;;;;8.05;5.75;;;;;;;19.46;95.17;99552.47;4167206;84;21067;-90
2022/08/12 08:13:03;;;;;;;6.87;4.53;;;;;;;19.70;89.38;99549.91;4172689;84;21056;-87
2022/08/12 08:19:08;;;;;;;4.72;4.30;;;;;;;19.89;92.12;99554.12;4177186;84;21560;-89
2022/08/12 08:25:12;;;;;;;6.23;4.30;;;;;;;20.32;90.05;99548.59;4171505;83;21141;-88
2022/08/12 08:31:14;;;;;;;7.62;3.72;;;;;;;20.34;87.76;99547.57;4170450;84;21692;-88
2022/08/12 08:37:17;;;;;;;3.55;3.00;;;;;;;20.61;88.69;99550.98;4173627;84;21059;-90
2022/08/12 08:43:21;;;;;;;4.90;2.85;;;;;;;20.84;87.78;99535.61;4157762;84;21108;-88
2022/08/12 08:49:23;;;;;;;3.80;2.62;;;;;;;21.06;87.04;99536.73;4173565;84;21089;-89
2022/08/12 08:55:25;;;;;;;4.10;2.60;;;;;;;21.23;85.83;99534.15;4167912;84;21038;-88
2022/08/12 09:01:26;;;;;;;7.35;3.00;;;;;;;21.40;84.95;99532.15;4166309;84;21110;-89
2022/08/12 09:07:28;;;;;;;3.85;3.40;;;;;;;21.44;84.12;99547.55;4167860;84;21062;-89
2022/08/12 09:13:33;;;;;;;5.75;4.95;;;;;;;21.67;83.89;99537.63;4166173;84;21123;-92
2022/08/12 09:19:32;;;;;;;5.53;4.08;;;;;;;21.85;82.17;99544.17;4169864;84;21613;-89
2022/08/12 09:25:39;;;;;;;6.55;4.75;;;;;;;22.00;82.34;99555.75;4171713;83;21070;-89
2022/08/12 09:31:41;;;;;;;;;;;;;;;22.49;81.66;99560.00;4205646;83;21088;-90
2022/08/12 09:37:42;;;;;;;5.92;4.60;;;;;;;22.88;80.59;99568.06;4221885;83;20174;-90
2022/08/12 09:50:08;;;;;;;6.40;3.92;;;;;;;24.40;79.57;99565.47;4236147;83;22020;-91
2022/08/12 09:56:16;;;;;;;4.90;3.77;;;;;;;24.68;71.65;99562.91;4224053;83;21912;-90
2022/08/12 10:02:15;;;;;;;5.25;4.37;;;;;;;25.17;76.29;99555.41;4228921;82;21812;-91
2022/08/12 10:08:31;;;;;;;4.05;3.35;;;;;;;25.21;72.72;99538.64;4230257;83;21101;-89
2022/08/12 10:14:28;;;;;;;5.08;3.22;;;;;;;25.76;71.51;99541.79;4227036;83;21082;-90
2022/08/12 10:20:30;;;;;;;4.33;3.37;;;;;;;26.68;70.63;99544.23;4219149;83;21070;-93
2022/08/12 10:32:59;;;;;;;5.28;3.50;;;;;;;27.12;68.46;99522.89;4216495;83;21074;-92
2022/08/12 10:39:02;;;;;;;4.37;3.50;;;;;;;27.20;66.30;99515.66;4219082;83;21072;-88
2022/08/12 10:45:08;;;;;;;3.58;2.85;;;;;;;27.59;65.97;99508.92;4210453;83;21090;-90
2022/08/12 10:51:10;;;;;;;3.92;3.10;;;;;;;27.35;63.23;99500.33;4232232;83;21134;-93
2022/08/12 10:57:20;;;;;;;3.40;3.10;;;;;;;27.51;63.00;99497.91;4212590;83;21056;-94
2022/08/12 11:03:21;;;;;;;4.03;3.20;;;;;;;27.69;57.16;99499.81;4232122;83;21060;-90
2022/08/12 11:09:29;;;;;;;5.72;3.17;;;;;;;27.37;60.34;99490.80;4234020;83;21046;-91
2022/08/12 11:15:31;;;;;;;4.35;2.90;;;;;;;27.84;59.97;99497.85;4238312;83;21014;-91
2022/08/12 11:21:32;;;;;;;4.28;2.72;;;;;;;27.96;58.60;99491.22;4220488;83;21086;-90
2022/08/12 11:27:34;;;;;;;3.75;2.50;;;;;;;28.31;58.62;99480.14;4224545;83;21095;-91
2022/08/12 11:33:42;;;;;;;3.45;2.55;;;;;;;28.51;56.25;99474.03;4218080;83;21027;-91
2022/08/12 11:39:43;;;;;;;3.40;2.50;;;;;;;27.83;55.62;99473.02;4221241;83;21103;-92
2022/08/12 11:45:48;;;;;;;4.40;2.30;;;;;;;28.11;55.93;99463.12;4222298;83;21107;-92
2022/08/12 11:51:50;;;;;;;3.70;2.30;;;;;;;27.97;54.16;99469.49;4226890;83;21004;-92
2022/08/12 11:57:56;;;;;;;6.08;2.80;;;;;;;27.70;55.01;99463.41;4221594;83;21071;-92
2022/08/12 12:03:59;;;;;;;4.30;2.40;;;;;;;27.52;54.77;99459.30;4211005;83;21042;-89
2022/08/12 12:10:00;;;;;;;6.78;3.00;;;;;;;27.30;51.50;99455.99;4208917;83;21435;-90
2022/08/12 12:16:07;;;;;;;7.97;2.70;;;;;;;26.58;53.14;99447.18;4228154;83;21095;-93
2022/08/12 12:22:07;;;;;;;3.80;3.20;;;;;;;26.37;52.65;99451.60;4230442;83;21042;-91
2022/08/12 12:28:09;;;;;;;4.75;3.75;;;;;;;25.95;54.02;99450.82;4236850;83;22487;-90
2022/08/12 12:34:15;;;;;;;5.75;3.62;;;;;;;25.71;53.66;99440.70;4204119;83;21105;-93
2022/08/12 12:40:17;;;;;;;6.15;4.17;;;;;;;25.50;54.26;99438.78;4228611;83;22331;-89
2022/08/12 12:46:25;;;;;;;10.08;5.22;;;;;;;25.19;54.63;99433.25;4233527;83;21103;-91
2022/08/12 12:52:27;;;;;;;6.17;4.72;;;;;;;24.93;55.43;99422.73;4230780;83;21187;-90
2022/08/12 12:58:29;;;;;;;8.28;5.05;;;;;;;24.91;55.53;99417.61;4226374;83;21050;-91
2022/08/12 13:04:33;;;;;;;6.45;4.83;;;;;;;24.76;56.27;99418.63;4218756;83;21078;-90
2022/08/12 13:10:36;;;;;;;8.75;5.28;;;;;;;24.73;56.71;99404.92;4221955;83;21054;-93
2022/08/12 13:16:39;;;;;;;7.15;4.65;;;;;;;24.69;56.30;99402.89;4106807;83;9999819;-90
2022/08/12 13:22:49;;;;;;;7.47;5.00;;;;;;;24.59;56.74;99405.45;4228443;83;21090;-90
2022/08/12 13:28:55;;;;;;;7.87;3.80;;;;;;;24.45;56.66;99375.22;4196752;83;21101;-93
2022/08/12 13:34:56;;;;;;;7.07;3.97;;;;;;;24.44;56.87;99383.46;4176827;84;21089;-91
2022/08/12 13:41:12;;;;;;;7.37;3.90;;;;;;;24.38;56.98;99379.70;4177026;84;21122;-90
2022/08/12 13:47:13;;;;;;;5.05;3.20;;;;;;;24.37;57.17;99388.70;4172005;84;21589;-91
2022/08/12 13:53:17;;;;;;;7.70;3.05;;;;;;;24.34;57.64;99374.84;4168844;84;21041;-93
2022/08/12 13:59:20;;;;;;;5.00;3.15;;;;;;;24.36;57.52;99370.98;4172171;84;21149;-92
2022/08/12 14:05:22;;;;;;;4.20;2.98;;;;;;;24.33;57.36;99361.50;4173209;84;21118;-92
2022/08/12 14:11:25;;;;;;;5.67;2.92;;;;;;;24.33;58.04;99360.70;4176198;84;21446;-91
2022/08/12 14:17:30;;;;;;;3.58;3.08;;;;;;;24.34;57.80;99358.84;4069625;86;21191;-92
2022/08/12 14:23:37;;;;;;;3.05;2.70;;;;;;;24.25;57.76;99355.22;4046932;86;21134;-91
2022/08/12 14:29:40;;;;;;;3.23;2.50;;;;;;;24.24;57.81;99353.67;4075421;86;21647;-93
2022/08/12 14:35:42;;;;;;;4.45;2.80;;;;;;;24.16;57.87;99343.38;4019816;87;21118;-91
2022/08/12 14:41:44;;;;;;;4.10;2.42;;;;;;;24.10;57.90;99344.42;4011436;87;21298;-91
2022/08/12 14:47:52;;;;;;;2.67;2.25;;;;;;;24.05;57.13;99339.42;4038730;87;21099;-91
2022/08/12 14:53:52;;;;;;;3.58;2.90;;;;;;;24.02;56.93;99335.53;4077766;85;21063;-92
2022/08/12 15:06:18;;;;;;;3.65;3.27;;;;;;;23.88;57.12;99317.83;4087204;86;21140;-90
2022/08/12 15:12:19;;;;;;;3.95;3.42;;;;;;;23.95;56.97;99325.97;4081650;86;21075;-92
2022/08/12 15:18:22;;;;;;;3.70;3.40;;;;;;;23.88;57.46;99315.03;3934480;87;9999726;-92
2022/08/12 15:24:25;;;;;;;4.35;3.77;;;;;;;23.87;57.90;99319.69;4041975;87;21132;-91
2022/08/12 15:30:29;;;;;;;4.60;4.15;;;;;;;23.79;58.33;99319.17;4101005;84;21130;-90
2022/08/12 15:36:30;;;;;;;4.22;3.83;;;;;;;23.73;58.86;99323.80;4061688;86;21395;-89
2022/08/12 15:42:33;;;;;;;4.62;3.83;;;;;;;23.66;59.12;99322.67;4149515;84;21123;-89
2022/08/12 15:48:36;;;;;;;4.65;4.25;;;;;;;23.60;59.38;99320.28;4204932;83;21070;-89
2022/08/12 15:54:37;;;;;;;6.47;4.65;;;;;;;23.54;59.61;99315.75;4208541;83;21082;-91
2022/08/12 16:00:40;;;;;;;5.75;4.75;;;;;;;23.49;59.88;99305.91;4220143;83;22306;-90
2022/08/12 16:06:41;;;;;;;6.15;4.40;;;;;;;23.43;60.10;99299.98;4208382;83;21087;-89
2022/08/12 16:12:51;;;;;;;8.23;5.30;;;;;;;23.40;60.34;99301.66;4217937;83;21023;-88
2022/08/12 16:18:56;;;;;;;5.55;5.05;;;;;;;23.35;60.29;99289.66;4206650;83;21167;-89
2022/08/12 16:24:59;;;;;;;5.92;5.25;;;;;;;23.29;60.67;99286.53;4212057;83;21051;-88
2022/08/12 16:31:01;;;;;;;5.92;5.35;;;;;;;23.22;61.15;99295.91;4220383;83;21098;-88
2022/08/12 16:37:08;;;;;;;5.72;5.00;;;;;;;23.13;61.40;99283.27;4227260;83;21432;-90
2022/08/12 16:43:26;;;;;;;6.87;6.17;;;;;;;23.04;61.56;99280.36;4216414;83;21097;-91
2022/08/12 16:49:28;;;;;;;6.25;5.62;;;;;;;22.95;61.96;99281.69;4213528;83;21686;-90
2022/08/12 16:55:33;;;;;;;8.23;6.50;;;;;;;22.88;62.32;99272.93;4231338;83;21111;-90
2022/08/12 17:01:35;;;;;;;7.00;6.30;;;;;;;22.84;62.80;99263.91;4233350;83;21069;-91
2022/08/12 17:07:38;;;;;;;6.95;6.28;;;;;;;22.77;63.10;99262.74;4143746;84;21131;-89
2022/08/12 17:13:39;;;;;;;6.55;5.92;;;;;;;22.71;63.47;99253.99;4149235;84;21148;-89
2022/08/12 17:19:45;;;;;;;10.03;6.92;;;;;;;22.63;63.70;99252.69;4088167;86;21772;-90
2022/08/12 17:25:51;;;;;;;7.95;7.15;;;;;;;22.55;64.25;99248.58;4131320;84;21120;-91
2022/08/12 17:32:01;;;;;;;8.68;7.35;;;;;;;22.51;64.68;99247.86;4070942;85;21170;-94
2022/08/12 17:38:04;;;;;;;10.03;7.10;;;;;;;22.42;65.17;99246.37;4050066;86;21106;-89
2022/08/12 17:44:06;;;;;;;6.63;5.50;;;;;;;22.35;65.53;99250.80;4044563;86;21174;-92
2022/08/12 17:50:09;;;;;;;6.05;5.45;;;;;;;22.21;65.87;99250.62;4048554;86;21534;-90
2022/08/12 17:56:11;;;;;;;7.33;5.42;;;;;;;22.12;66.15;99244.95;4044692;86;21079;-90
2022/08/12 18:02:16;;;;;;;6.17;5.58;;;;;;;22.02;66.59;99247.44;4047703;86;21508;-89
2022/08/12 18:08:20;;;;;;;5.75;5.25;;;;;;;21.92;66.99;99249.96;4023560;86;21756;-91
2022/08/12 18:14:22;;;;;;;7.83;5.75;;;;;;;21.85;67.56;99250.16;4054263;86;22229;-88
2022/08/12 18:20:25;;;;;;;7.40;6.20;;;;;;;21.78;68.18;99249.60;4065088;85;21601;-91
2022/08/12 18:26:29;;;;;;;9.63;6.75;;;;;;;21.68;68.71;99243.09;4067864;86;21091;-89
2022/08/12 18:32:33;;;;;;;9.25;6.95;;;;;;;21.57;69.26;99248.98;4102627;85;21092;-90
2022/08/12 18:38:40;;;;;;;9.15;6.78;;;;;;;21.44;69.74;99249.55;4213921;83;21066;-90
2022/08/12 18:44:44;;;;;;;7.85;6.85;;;;;;;21.32;70.30;99253.69;4226634;83;21085;-94
2022/08/12 18:50:47;;;;;;;7.05;6.00;;;;;;;21.24;70.74;99257.89;4210041;83;21052;-90
2022/08/12 18:56:49;;;;;;;6.05;5.45;;;;;;;21.09;71.18;99256.72;4229224;83;22046;-87
2022/08/12 19:02:54;;;;;;;7.50;4.90;;;;;;;21.03;72.04;99257.84;4220026;83;21985;-90
2022/08/12 19:08:56;;;;;;;6.58;5.85;;;;;;;20.83;72.94;99255.78;4206070;83;21491;-91
2022/08/12 19:14:59;;;;;;;9.68;6.08;;;;;;;20.75;73.81;99260.59;4121830;84;20984;-90
2022/08/12 19:21:00;;;;;;;6.95;6.28;;;;;;;20.63;74.46;99266.23;4058940;86;21076;-90
2022/08/12 19:27:04;;;;;;;8.65;6.92;;;;;;;20.50;74.58;99259.80;4218601;83;21027;-90
2022/08/12 19:33:07;;;;;;;9.55;6.83;;;;;;;20.36;74.91;99262.92;4180245;83;21050;-92
2022/08/12 19:39:10;;;;;;;8.88;6.75;;;;;;;20.13;75.49;99262.48;4167606;84;21081;-88
2022/08/12 19:45:13;;;;;;;7.70;6.83;;;;;;;19.90;76.34;99263.98;4171835;84;21077;-89
2022/08/12 19:51:17;;;;;;;8.33;7.25;;;;;;;19.69;76.89;99266.41;4176490;84;21160;-90
2022/08/12 19:57:19;;;;;;;10.82;7.20;;;;;;;19.57;77.54;99267.87;4172145;84;21050;-88
2022/08/12 20:03:24;;;;;;;10.70;9.60;;;;;;;19.49;78.30;99265.65;4171062;84;21062;-91
2022/08/12 20:09:27;;;;;;;11.93;9.05;;;;;;;19.42;78.77;99271.36;4173305;84;21598;-89
2022/08/12 20:15:28;;;;;;;12.50;9.50;;;;;;;19.38;79.56;99274.80;4166391;84;21060;-89
2022/08/12 20:21:31;;;;;;;17.42;11.18;;;;;;;19.28;79.86;99279.97;4169604;83;21074;-90
2022/08/12 20:27:35;;;;;;;16.25;12.30;;;;;;;19.21;80.52;99284.22;4172859;84;21062;-89
2022/08/12 20:33:36;;;;;;;15.03;11.93;;;;;;;19.18;80.96;99289.23;4217162;82;21167;-92
2022/08/12 20:39:39;;;;;;;14.05;11.25;;;;;;;19.17;81.28;99293.23;4208177;83;21019;-89
2022/08/12 20:45:41;;;;;;;13.83;10.65;;;;;;;19.15;81.68;99288.11;4220155;83;21054;-88
2022/08/12 20:51:42;;;;;;;12.47;10.55;;;;;;;19.13;81.95;99268.31;4223988;83;21101;-90
2022/08/12 20:57:43;;;;;;;13.78;10.23;;;;;;;19.06;81.83;99272.59;4217327;83;21070;-92
2022/08/12 21:10:07;;;;;;;14.45;11.80;;;;;;;18.93;82.94;99295.25;4212630;83;21081;-90
2022/08/12 21:16:10;;;;;;;15.15;12.25;;;;;;;18.86;83.53;99289.81;4208104;83;21098;-89
2022/08/12 21:22:12;;;;;;;17.65;11.48;;;;;;;18.79;83.78;99289.95;4218762;83;21030;-88
2022/08/12 21:28:13;;;;;;;16.12;11.03;;;;;;;18.74;84.26;99285.64;4209693;83;21089;-88
2022/08/12 21:34:17;;;;;;;14.28;12.00;;;;;;;18.69;84.67;99288.92;4253797;82;21091;-89
2022/08/12 21:40:19;;;;;;;14.40;11.10;;;;;;;18.64;85.02;99288.01;4258487;82;21066;-90
2022/08/12 21:46:20;;;;;;;13.50;11.80;;;;;;;18.60;85.52;99284.49;4262204;82;21069;-96
2022/08/12 21:52:26;;;;;;;13.28;10.55;;;;;;;18.52;85.96;99283.66;4257326;82;21132;-89
2022/08/12 21:58:27;;;;;;;14.20;10.75;;;;;;;18.43;86.56;99286.95;4254432;82;20989;-87
2022/08/12 22:10:52;;;;;;;13.90;9.95;;;;;;;18.34;87.46;99276.19;4262955;82;21529;-88
2022/08/12 22:16:55;;;;;;;13.55;10.68;;;;;;;18.30;87.80;99276.27;4257474;82;21618;-89
2022/08/12 22:22:59;;;;;;;15.40;11.38;;;;;;;18.31;88.00;99276.44;4261840;82;21064;-89
2022/08/12 22:35:32;;;;;;;14.33;11.00;;;;;;;18.17;88.53;99273.08;4177240;82;21097;-88
2022/08/12 22:47:55;;;;;;;12.18;10.63;;;;;;;18.02;89.11;99260.06;4180737;84;21819;-91
2022/08/12 22:53:57;;;;;;;11.78;10.55;;;;;;;17.92;89.53;99253.27;4176598;84;21052;-88
2022/08/12 23:00:01;;;;;;;17.00;12.03;;;;;;;17.82;89.93;99253.60;4175898;84;21120;-88
2022/08/12 23:06:02;;;;;;;12.93;10.95;;;;;;;17.68;90.09;99261.34;4176566;84;21035;-88
2022/08/12 23:12:05;;;;;;;16.35;12.78;;;;;;;17.55;90.65;99245.09;4175725;84;21641;-92
2022/08/12 23:18:14;;;;;;;15.83;11.25;;;;;;;17.43;90.49;99232.55;4176314;84;21002;-88
2022/08/12 23:24:17;;;;;;;16.23;12.40;;;;;;;17.46;91.84;99222.05;4172687;84;22289;-88
2022/08/12 23:30:23;;;;;;;12.35;10.00;;;;;;;17.52;91.83;99220.42;4178136;83;21066;-89
2022/08/12 23:36:27;;;;;;;13.45;10.13;;;;;;;17.43;91.89;99215.94;4220185;83;21070;-89
2022/08/12 23:42:28;;;;;;;14.83;12.45;;;;;;;17.33;92.29;99214.11;4219612;83;21079;-88
2022/08/12 23:48:32;;;;;;;17.07;12.80;;;;;;;17.24;92.55;99202.14;4233462;83;21175;-88
2022/08/12 23:54:35;;;;;;;20.68;13.60;;;;;;;17.31;93.33;99198.52;4214762;83;21078;-89
